Time;durP1;ratioP1;P1;durP2;ratioP2;P2;SDS_P1;SDS_P2;PMS_P1;PMS_P2;Temp;Humidity;BMP_temperature;BMP_pressure;BME280_temperature;BME280_humidity;BME280_pressure;Samples;Min_cycle;Max_cycle;Signal;HPM_P1;HPM_P2
2021/07/19 00:01:33;;;;;;;0.70;0.57;;;17.30;75.30;;;;;;5014642;28;20053;-77
2021/07/19 00:04:00;;;;;;;0.20;0.20;;;17.40;75.40;;;;;;5014631;28;20047;-76
2021/07/19 00:06:26;;;;;;;0.55;0.55;;;17.40;75.40;;;;;;5029663;28;20100;-77
2021/07/19 00:08:52;;;;;;;0.50;0.38;;;17.30;75.40;;;;;;5013935;28;20087;-77
2021/07/19 00:11:18;;;;;;;0.35;0.35;;;17.30;75.50;;;;;;5014231;28;20030;-77
2021/07/19 00:13:44;;;;;;;0.43;0.40;;;17.30;75.60;;;;;;5014341;28;20033;-77
2021/07/19 00:16:10;;;;;;;0.75;0.75;;;17.30;75.50;;;;;;5014459;28;20030;-76
2021/07/19 00:18:36;;;;;;;0.60;0.60;;;17.20;75.50;;;;;;5014253;28;20018;-76
2021/07/19 00:21:02;;;;;;;0.73;0.65;;;17.20;75.60;;;;;;5014278;28;20076;-76
2021/07/19 00:23:27;;;;;;;0.50;0.50;;;17.10;75.60;;;;;;5013403;28;20554;-77
2021/07/19 00:25:53;;;;;;;0.50;0.50;;;17.20;75.70;;;;;;5014052;28;20042;-76
2021/07/19 00:28:19;;;;;;;0.50;0.50;;;17.10;75.70;;;;;;5014042;28;20022;-76
2021/07/19 00:30:45;;;;;;;0.77;0.60;;;17.10;75.70;;;;;;5014316;28;20042;-75
2021/07/19 00:33:10;;;;;;;0.50;0.50;;;17.10;75.80;;;;;;5013918;28;20029;-76
2021/07/19 00:35:37;;;;;;;0.57;0.57;;;17.00;75.70;;;;;;5014192;28;20025;-78
2021/07/19 00:38:03;;;;;;;1.08;0.75;;;17.00;75.80;;;;;;5028917;28;20017;-77
2021/07/19 00:40:35;;;;;;;0.82;0.45;;;17.00;75.80;;;;;;5013947;28;20040;-77
2021/07/19 00:43:01;;;;;;;0.52;0.52;;;16.90;75.90;;;;;;5028849;28;20034;-76
2021/07/19 00:45:28;;;;;;;1.00;0.80;;;16.90;76.00;;;;;;5028733;28;20028;-76
2021/07/19 00:47:56;;;;;;;0.75;0.70;;;16.90;76.00;;;;;;5013633;28;20032;-76
2021/07/19 00:50:24;;;;;;;1.02;0.80;;;16.90;76.10;;;;;;5013833;28;20026;-76
2021/07/19 00:52:56;;;;;;;0.52;0.52;;;16.90;76.10;;;;;;5013291;28;20022;-76
2021/07/19 00:55:25;;;;;;;0.50;0.50;;;16.80;76.10;;;;;;5013628;28;20514;-77
2021/07/19 00:57:54;;;;;;;0.50;0.50;;;16.80;76.20;;;;;;5013814;28;20402;-76
2021/07/19 01:00:19;;;;;;;1.45;0.90;;;16.70;76.30;;;;;;5013706;28;20022;-77
2021/07/19 01:02:49;;;;;;;0.55;0.55;;;16.70;76.40;;;;;;5013669;28;20483;-75
2021/07/19 01:05:14;;;;;;;0.50;0.50;;;16.70;76.40;;;;;;5013643;28;20463;-75
2021/07/19 01:07:40;;;;;;;0.60;0.60;;;16.70;76.40;;;;;;5013134;28;20037;-75
2021/07/19 01:10:11;;;;;;;0.85;0.60;;;16.70;76.50;;;;;;5013425;28;20489;-75
2021/07/19 01:12:37;;;;;;;1.00;0.90;;;16.70;76.50;;;;;;5013604;28;20036;-77
2021/07/19 01:15:06;;;;;;;0.82;0.70;;;16.70;76.60;;;;;;5013462;28;20152;-76
2021/07/19 01:17:32;;;;;;;0.57;0.50;;;16.70;76.60;;;;;;5013365;28;20061;-76
2021/07/19 01:19:57;;;;;;;0.60;0.60;;;16.60;76.60;;;;;;5013453;28;20108;-76
2021/07/19 01:22:44;;;;;;;1.63;0.90;;;16.60;76.60;;;;;;5012726;28;20042;-75
2021/07/19 01:25:23;;;;;;;0.73;0.63;;;16.60;76.60;;;;;;5013375;28;20105;-75
2021/07/19 01:28:07;;;;;;;;;;;16.60;76.80;;;;;;5013664;28;20037;-76
2021/07/19 01:30:34;;;;;;;0.55;0.55;;;16.50;76.60;;;;;;5012142;28;19905;-76
2021/07/19 01:33:02;;;;;;;0.50;0.50;;;16.50;76.80;;;;;;5013644;28;20072;-76
2021/07/19 01:35:32;;;;;;;1.00;0.70;;;16.50;76.80;;;;;;5028171;28;20375;-76
2021/07/19 01:37:59;;;;;;;0.80;0.73;;;16.50;76.80;;;;;;5013342;28;20029;-77
2021/07/19 01:40:25;;;;;;;0.57;0.57;;;16.50;77.00;;;;;;5013183;28;20536;-76
2021/07/19 01:42:51;;;;;;;0.52;0.52;;;16.40;77.00;;;;;;5013272;28;20053;-76
2021/07/19 01:45:17;;;;;;;0.40;0.40;;;16.40;77.10;;;;;;5013156;28;20026;-76
2021/07/19 01:47:43;;;;;;;0.60;0.52;;;16.40;77.20;;;;;;5013220;28;20471;-76
2021/07/19 01:50:10;;;;;;;0.50;0.50;;;16.40;77.20;;;;;;5012703;28;20097;-77
2021/07/19 01:52:36;;;;;;;0.57;0.57;;;16.30;77.20;;;;;;5013071;28;20029;-76
2021/07/19 01:55:03;;;;;;;0.57;0.57;;;16.30;77.30;;;;;;5013243;28;20477;-77
2021/07/19 01:57:29;;;;;;;0.73;0.70;;;16.30;78.00;;;;;;5013210;28;20022;-76
2021/07/19 01:59:57;;;;;;;0.70;0.70;;;16.20;77.50;;;;;;5016772;28;20109;-76
2021/07/19 02:02:24;;;;;;;1.17;0.90;;;16.10;77.60;;;;;;5016971;28;20032;-75
2021/07/19 02:04:50;;;;;;;0.80;0.80;;;16.10;77.70;;;;;;5016265;28;20025;-75
2021/07/19 02:07:17;;;;;;;0.68;0.65;;;16.10;77.70;;;;;;5015539;28;20030;-76
2021/07/19 02:09:45;;;;;;;0.88;0.70;;;16.10;77.70;;;;;;5016844;28;20022;-76
2021/07/19 02:12:11;;;;;;;0.70;0.70;;;16.10;77.70;;;;;;5016702;28;20037;-77
2021/07/19 02:14:41;;;;;;;0.60;0.60;;;16.10;77.60;;;;;;5031881;28;20018;-78
2021/07/19 02:17:09;;;;;;;0.70;0.68;;;16.10;78.00;;;;;;5016592;28;20022;-76
2021/07/19 02:19:37;;;;;;;0.98;0.73;;;16.00;77.70;;;;;;5016184;28;20026;-76
2021/07/19 02:22:04;;;;;;;0.60;0.60;;;16.00;77.70;;;;;;5016043;28;20022;-77
2021/07/19 02:24:30;;;;;;;0.85;0.82;;;16.10;77.80;;;;;;5016427;28;20033;-76
2021/07/19 02:26:57;;;;;;;0.93;0.77;;;16.00;77.80;;;;;;5031566;28;20080;-75
2021/07/19 02:29:24;;;;;;;1.15;0.80;;;16.00;77.80;;;;;;5016378;28;20426;-76
2021/07/19 02:31:50;;;;;;;1.05;0.65;;;16.00;77.80;;;;;;5016279;28;20025;-77
2021/07/19 02:34:20;;;;;;;0.93;0.82;;;16.00;77.90;;;;;;5015744;28;20018;-77
2021/07/19 02:36:48;;;;;;;0.70;0.70;;;16.00;77.90;;;;;;5016273;28;20026;-76
2021/07/19 02:39:14;;;;;;;1.15;0.75;;;16.00;77.90;;;;;;5031384;28;20044;-76
2021/07/19 02:41:42;;;;;;;0.93;0.90;;;16.00;77.90;;;;;;5016082;28;20541;-76
2021/07/19 02:44:08;;;;;;;0.95;0.80;;;16.00;78.00;;;;;;5031481;28;20498;-77
2021/07/19 02:46:34;;;;;;;0.77;0.70;;;16.00;78.10;;;;;;5016001;28;20040;-76
2021/07/19 02:49:01;;;;;;;0.60;0.60;;;16.00;78.10;;;;;;5015523;28;20354;-77
2021/07/19 02:51:29;;;;;;;1.40;1.20;;;16.00;78.20;;;;;;5031304;28;20025;-76
2021/07/19 02:53:57;;;;;;;0.82;0.75;;;16.00;78.30;;;;;;5015896;28;20418;-76
2021/07/19 02:56:24;;;;;;;0.82;0.60;;;16.00;78.30;;;;;;5015867;28;20029;-76
2021/07/19 02:58:50;;;;;;;0.52;0.52;;;16.00;78.30;;;;;;5015752;28;20018;-76
2021/07/19 03:01:20;;;;;;;0.85;0.80;;;16.00;78.30;;;;;;5015570;28;20100;-76
2021/07/19 03:03:46;;;;;;;0.77;0.75;;;16.00;78.30;;;;;;5015277;28;20033;-76
2021/07/19 03:06:18;;;;;;;0.77;0.77;;;16.00;78.40;;;;;;5030829;28;20038;-76
2021/07/19 03:08:44;;;;;;;1.33;0.88;;;16.00;78.40;;;;;;5015566;28;20028;-75
2021/07/19 03:11:15;;;;;;;1.20;1.00;;;16.00;78.50;;;;;;5015426;28;20030;-75
2021/07/19 03:13:43;;;;;;;0.70;0.70;;;16.00;78.50;;;;;;5015755;28;20070;-76
2021/07/19 03:16:11;;;;;;;0.90;0.90;;;16.00;78.60;;;;;;5015581;28;20029;-75
2021/07/19 03:18:40;;;;;;;0.50;0.50;;;16.00;78.70;;;;;;5015104;28;20022;-77
2021/07/19 03:21:07;;;;;;;0.95;0.60;;;16.00;78.70;;;;;;5015249;28;20026;-76
2021/07/19 03:23:35;;;;;;;0.63;0.60;;;15.90;78.70;;;;;;5015097;28;20046;-76
2021/07/19 03:26:02;;;;;;;0.77;0.77;;;15.90;78.80;;;;;;5015252;28;20022;-77
2021/07/19 03:28:29;;;;;;;0.82;0.60;;;15.90;78.90;;;;;;5015326;28;20080;-76
2021/07/19 03:30:55;;;;;;;0.90;0.88;;;15.90;78.90;;;;;;5014822;28;20034;-77
2021/07/19 03:33:22;;;;;;;1.42;1.02;;;15.90;78.90;;;;;;5015133;28;20517;-76
2021/07/19 03:35:48;;;;;;;0.80;0.73;;;15.90;79.00;;;;;;5014982;28;20026;-76
2021/07/19 03:38:18;;;;;;;0.73;0.57;;;15.90;79.00;;;;;;5014904;28;20025;-75
2021/07/19 03:40:44;;;;;;;0.52;0.52;;;15.90;79.00;;;;;;5015038;28;20025;-76
2021/07/19 03:43:11;;;;;;;1.02;0.93;;;15.80;79.10;;;;;;5014973;28;20038;-77
2021/07/19 03:45:37;;;;;;;1.38;1.15;;;15.80;79.10;;;;;;5014420;28;20390;-76
2021/07/19 03:48:03;;;;;;;0.70;0.70;;;15.80;79.30;;;;;;5014899;28;20024;-77
2021/07/19 03:50:31;;;;;;;0.85;0.85;;;15.80;79.40;;;;;;5013329;28;20029;-76
2021/07/19 03:52:57;;;;;;;1.52;1.20;;;15.80;79.50;;;;;;5014855;28;20026;-76
2021/07/19 03:55:23;;;;;;;1.52;1.08;;;15.80;79.50;;;;;;5014860;28;20100;-76
2021/07/19 03:57:51;;;;;;;1.20;1.00;;;15.80;79.50;;;;;;5014789;28;20109;-76
2021/07/19 04:00:18;;;;;;;1.52;0.80;;;15.80;79.50;;;;;;5014034;28;20399;-75
2021/07/19 04:02:49;;;;;;;1.10;0.98;;;15.80;79.50;;;;;;5014760;28;20101;-77
2021/07/19 04:05:16;;;;;;;1.35;0.95;;;15.80;79.60;;;;;;5014492;28;20125;-75
2021/07/19 04:07:45;;;;;;;0.88;0.80;;;15.80;79.60;;;;;;5014548;28;20026;-75
2021/07/19 04:10:13;;;;;;;0.93;0.93;;;15.80;79.60;;;;;;5014541;28;20057;-75
2021/07/19 04:12:50;;;;;;;1.02;0.93;;;15.80;79.60;;;;;;5014386;28;20555;-75
2021/07/19 04:15:16;;;;;;;1.30;0.85;;;15.80;79.70;;;;;;5013834;28;20021;-77
2021/07/19 04:17:44;;;;;;;0.80;0.80;;;15.80;79.70;;;;;;5014351;28;20371;-75
2021/07/19 04:20:13;;;;;;;1.27;0.95;;;15.80;79.70;;;;;;5013934;28;20113;-77
2021/07/19 04:22:38;;;;;;;1.35;0.90;;;15.80;79.70;;;;;;5028795;28;20049;-77
2021/07/19 04:25:07;;;;;;;0.50;0.50;;;15.80;79.70;;;;;;5014267;28;20026;-75
2021/07/19 04:27:36;;;;;;;0.80;0.80;;;15.80;79.80;;;;;;5014196;28;20479;-76
2021/07/19 04:30:03;;;;;;;1.02;0.70;;;15.80;79.80;;;;;;5013605;28;20545;-76
2021/07/19 04:32:30;;;;;;;1.77;0.93;;;15.80;79.80;;;;;;5013973;28;20021;-76
2021/07/19 04:34:55;;;;;;;0.95;0.90;;;15.80;79.80;;;;;;5014118;28;20371;-76
2021/07/19 04:37:21;;;;;;;1.33;0.98;;;15.80;79.80;;;;;;5014048;28;20022;-75
2021/07/19 04:39:46;;;;;;;0.68;0.68;;;15.80;79.80;;;;;;5013973;28;20025;-75
2021/07/19 04:42:12;;;;;;;1.15;1.05;;;15.90;79.80;;;;;;5014005;28;20029;-77
2021/07/19 04:44:38;;;;;;;0.80;0.70;;;15.90;79.70;;;;;;5013375;28;20026;-78
2021/07/19 04:47:04;;;;;;;1.02;0.93;;;16.00;79.70;;;;;;5013795;28;20483;-76
2021/07/19 04:49:30;;;;;;;0.73;0.73;;;16.00;79.60;;;;;;5013838;28;20036;-76
2021/07/19 04:51:56;;;;;;;1.42;1.10;;;16.10;79.60;;;;;;5013906;28;20026;-76
2021/07/19 04:54:28;;;;;;;1.50;1.10;;;16.10;79.50;;;;;;5013741;28;20033;-77
2021/07/19 04:56:56;;;;;;;1.00;0.80;;;16.10;79.70;;;;;;5013705;28;20029;-77
2021/07/19 04:59:24;;;;;;;1.10;1.00;;;16.00;79.90;;;;;;5013173;28;20057;-75
2021/07/19 05:01:52;;;;;;;1.10;0.90;;;16.00;80.00;;;;;;5013447;28;20041;-77
2021/07/19 05:04:25;;;;;;;1.08;0.73;;;16.10;80.00;;;;;;5013677;28;20022;-76
2021/07/19 05:06:52;;;;;;;1.08;0.98;;;16.20;79.90;;;;;;5013493;28;20033;-76
2021/07/19 05:09:19;;;;;;;1.15;1.02;;;16.30;79.70;;;;;;5013536;28;20125;-78
2021/07/19 05:11:46;;;;;;;1.00;0.90;;;16.40;79.60;;;;;;5013386;28;20022;-76
2021/07/19 05:14:13;;;;;;;0.82;0.82;;;16.40;79.60;;;;;;5028241;28;20022;-75
2021/07/19 05:16:40;;;;;;;0.80;0.80;;;16.50;79.50;;;;;;5013457;28;20022;-76
2021/07/19 05:19:06;;;;;;;1.35;1.25;;;16.60;79.30;;;;;;5013485;28;20037;-77
2021/07/19 05:21:35;;;;;;;0.75;0.73;;;16.70;79.40;;;;;;5028568;28;20018;-76
2021/07/19 05:24:02;;;;;;;1.95;0.98;;;16.80;79.30;;;;;;5013088;28;20139;-75
2021/07/19 05:26:28;;;;;;;1.00;0.73;;;16.90;79.20;;;;;;5013344;28;20034;-76
2021/07/19 05:28:56;;;;;;;0.95;0.77;;;17.00;79.10;;;;;;5028046;28;20025;-75
2021/07/19 05:31:22;;;;;;;2.03;0.88;;;17.10;79.00;;;;;;5013324;28;20390;-76
2021/07/19 05:33:48;;;;;;;1.00;0.80;;;17.20;79.00;;;;;;5030606;28;20113;-75
2021/07/19 05:36:13;;;;;;;0.60;0.60;;;17.20;78.80;;;;;;5017347;28;20061;-75
2021/07/19 05:38:40;;;;;;;0.77;0.70;;;17.30;78.80;;;;;;5017084;28;20026;-75
2021/07/19 05:41:07;;;;;;;1.00;0.90;;;17.30;78.70;;;;;;5017174;28;20033;-75
2021/07/19 05:43:32;;;;;;;0.90;0.90;;;17.30;78.90;;;;;;5016845;28;20053;-75
2021/07/19 05:45:58;;;;;;;0.77;0.52;;;17.40;78.90;;;;;;5017374;28;20058;-76
2021/07/19 05:48:24;;;;;;;0.93;0.65;;;17.50;78.90;;;;;;5016995;28;20088;-75
2021/07/19 05:50:49;;;;;;;1.02;0.70;;;17.50;78.80;;;;;;5017227;28;20056;-75
2021/07/19 05:53:15;;;;;;;0.68;0.63;;;17.70;78.60;;;;;;5017626;28;20467;-74
2021/07/19 05:55:41;;;;;;;0.47;0.47;;;17.80;78.40;;;;;;5016958;28;20018;-74
2021/07/19 05:58:07;;;;;;;1.02;1.02;;;17.90;78.30;;;;;;5031810;28;20029;-75
2021/07/19 06:00:32;;;;;;;0.55;0.55;;;18.10;78.10;;;;;;5017060;28;20025;-75
2021/07/19 06:02:58;;;;;;;0.73;0.70;;;18.20;78.00;;;;;;5016672;28;20057;-75
2021/07/19 06:05:24;;;;;;;0.40;0.40;;;18.30;77.90;;;;;;5032087;28;20030;-75
2021/07/19 06:07:49;;;;;;;0.40;0.40;;;18.40;77.90;;;;;;5016624;28;20037;-74
2021/07/19 06:10:15;;;;;;;0.63;0.63;;;18.50;77.80;;;;;;5016717;28;20072;-73
2021/07/19 06:12:42;;;;;;;0.70;0.70;;;18.60;77.70;;;;;;5031291;28;20526;-74
2021/07/19 06:15:10;;;;;;;0.90;0.77;;;18.60;77.60;;;;;;5016600;28;20018;-76
2021/07/19 06:17:40;;;;;;;0.63;0.63;;;18.70;77.80;;;;;;5016520;28;20121;-74
2021/07/19 06:20:14;;;;;;;0.98;0.82;;;18.60;78.00;;;;;;5016398;28;20390;-74
2021/07/19 06:22:41;;;;;;;0.65;0.65;;;18.70;78.00;;;;;;5031491;28;20125;-73
2021/07/19 06:25:08;;;;;;;0.73;0.73;;;18.80;78.00;;;;;;5015670;28;20394;-75
2021/07/19 06:27:34;;;;;;;0.70;0.70;;;18.90;77.90;;;;;;5016279;28;20053;-74
2021/07/19 06:30:00;;;;;;;0.82;0.75;;;19.00;77.80;;;;;;5016316;28;20050;-74
2021/07/19 06:32:25;;;;;;;0.75;0.70;;;19.00;77.80;;;;;;5016344;28;20026;-74
2021/07/19 06:34:50;;;;;;;0.88;0.77;;;19.00;77.80;;;;;;5016125;28;20080;-74
2021/07/19 06:37:16;;;;;;;1.33;1.23;;;19.00;77.80;;;;;;5016188;28;20037;-74
2021/07/19 06:39:44;;;;;;;0.55;0.55;;;19.10;77.90;;;;;;5015694;28;20026;-74
2021/07/19 06:42:10;;;;;;;0.60;0.60;;;19.20;77.80;;;;;;5016147;28;20469;-74
2021/07/19 06:44:35;;;;;;;0.57;0.57;;;19.30;77.60;;;;;;5015715;28;20557;-74
2021/07/19 06:47:01;;;;;;;0.52;0.52;;;19.40;77.40;;;;;;5031110;28;20390;-73
2021/07/19 06:49:26;;;;;;;0.93;0.80;;;19.50;77.30;;;;;;5015870;28;20022;-74
2021/07/19 06:51:52;;;;;;;0.90;0.90;;;19.60;77.40;;;;;;5015933;28;20022;-74
2021/07/19 06:54:18;;;;;;;1.38;1.00;;;19.60;77.30;;;;;;5015392;28;20022;-75
2021/07/19 06:56:45;;;;;;;1.58;1.33;;;19.50;77.60;;;;;;5015792;28;20491;-73
2021/07/19 06:59:12;;;;;;;1.25;1.08;;;19.40;78.00;;;;;;5015710;28;20034;-75
2021/07/19 07:01:39;;;;;;;0.90;0.80;;;19.30;78.30;;;;;;5015733;28;20565;-74
2021/07/19 07:04:08;;;;;;;0.80;0.80;;;19.30;78.40;;;;;;5015631;28;20060;-73
2021/07/19 07:06:34;;;;;;;1.13;0.90;;;19.40;78.40;;;;;;5015447;28;20490;-73
2021/07/19 07:09:00;;;;;;;1.20;1.08;;;19.50;78.20;;;;;;5015064;28;20048;-73
2021/07/19 07:11:27;;;;;;;1.13;0.95;;;19.60;78.00;;;;;;5015557;28;20479;-74
2021/07/19 07:13:54;;;;;;;0.80;0.75;;;19.50;78.60;;;;;;5015357;28;20026;-74
2021/07/19 07:16:19;;;;;;;0.93;0.80;;;19.50;78.30;;;;;;5015382;28;20034;-74
2021/07/19 07:18:45;;;;;;;1.88;1.00;;;19.50;78.30;;;;;;5015380;28;20022;-74
2021/07/19 07:21:11;;;;;;;0.60;0.60;;;19.60;78.20;;;;;;5015329;28;20018;-74
2021/07/19 07:23:36;;;;;;;0.65;0.65;;;19.70;78.10;;;;;;5014727;28;20046;-75
2021/07/19 07:26:02;;;;;;;0.82;0.80;;;19.70;77.90;;;;;;5015261;28;20045;-73
2021/07/19 07:28:28;;;;;;;0.68;0.68;;;19.90;77.80;;;;;;5015151;28;20018;-73
2021/07/19 07:30:53;;;;;;;0.80;0.80;;;20.00;77.60;;;;;;5015166;28;20034;-74
2021/07/19 07:33:19;;;;;;;1.13;0.90;;;20.10;77.40;;;;;;5015096;28;20057;-74
2021/07/19 07:35:46;;;;;;;0.77;0.77;;;20.20;77.40;;;;;;5015216;28;20104;-74
2021/07/19 07:38:11;;;;;;;0.70;0.70;;;20.20;77.20;;;;;;5029737;28;20022;-75
2021/07/19 07:40:37;;;;;;;0.75;0.75;;;20.20;77.30;;;;;;5015046;28;20030;-74
2021/07/19 07:43:02;;;;;;;0.82;0.82;;;20.20;77.30;;;;;;5014963;28;20022;-72
2021/07/19 07:45:28;;;;;;;0.60;0.60;;;20.20;77.10;;;;;;5014723;28;20412;-73
2021/07/19 07:47:54;;;;;;;1.00;0.70;;;20.10;77.40;;;;;;5014891;28;20029;-74
2021/07/19 07:50:19;;;;;;;0.70;0.70;;;20.10;77.60;;;;;;5014756;28;20026;-73
2021/07/19 07:52:44;;;;;;;1.10;0.90;;;20.10;77.50;;;;;;5014536;28;20022;-73
2021/07/19 07:55:11;;;;;;;0.60;0.60;;;20.20;77.50;;;;;;5014248;28;20030;-73
2021/07/19 07:57:36;;;;;;;0.95;0.85;;;20.30;77.20;;;;;;5014310;28;20018;-73
2021/07/19 08:00:11;;;;;;;1.17;0.80;;;20.30;77.30;;;;;;5014475;28;20072;-73
2021/07/19 08:02:37;;;;;;;0.90;0.82;;;20.40;77.10;;;;;;5014712;28;20029;-75
2021/07/19 08:05:03;;;;;;;0.70;0.70;;;20.40;77.00;;;;;;5014656;28;20030;-73
2021/07/19 08:07:28;;;;;;;0.70;0.70;;;20.50;76.90;;;;;;5029260;28;20067;-73
2021/07/19 08:09:54;;;;;;;1.60;1.13;;;20.70;76.70;;;;;;5014469;28;20387;-73
2021/07/19 08:12:19;;;;;;;1.17;0.88;;;20.80;76.40;;;;;;5014432;28;20034;-74
2021/07/19 08:14:45;;;;;;;0.90;0.75;;;21.00;76.00;;;;;;5014374;28;20083;-74
2021/07/19 08:17:10;;;;;;;1.10;1.00;;;21.20;75.70;;;;;;5014323;28;20033;-74
2021/07/19 08:19:36;;;;;;;0.82;0.73;;;21.30;75.50;;;;;;5014236;28;20062;-73
2021/07/19 08:22:02;;;;;;;0.82;0.82;;;21.30;75.50;;;;;;5013829;28;20524;-74
2021/07/19 08:24:27;;;;;;;1.30;0.90;;;21.40;75.50;;;;;;5014056;28;20244;-74
2021/07/19 08:26:53;;;;;;;0.70;0.70;;;21.40;75.50;;;;;;5014166;28;20050;-73
2021/07/19 08:29:19;;;;;;;0.52;0.52;;;21.50;75.30;;;;;;5014197;28;20034;-73
2021/07/19 08:31:45;;;;;;;1.20;0.98;;;21.50;75.20;;;;;;5013906;28;20029;-73
2021/07/19 08:34:11;;;;;;;0.88;0.88;;;21.50;75.30;;;;;;5014130;28;20526;-74
2021/07/19 08:36:36;;;;;;;0.77;0.77;;;21.50;75.30;;;;;;5013396;28;20117;-73
2021/07/19 08:39:04;;;;;;;1.10;1.00;;;21.40;75.50;;;;;;5014044;28;20495;-73
2021/07/19 08:41:30;;;;;;;1.30;1.00;;;21.30;75.70;;;;;;5013894;28;20038;-73
2021/07/19 08:43:58;;;;;;;1.30;0.90;;;21.30;75.80;;;;;;5013811;28;20018;-73
2021/07/19 08:46:23;;;;;;;0.80;0.80;;;21.20;75.70;;;;;;5013623;28;20034;-73
2021/07/19 08:48:52;;;;;;;1.27;0.90;;;21.20;75.90;;;;;;5013778;28;20084;-73
2021/07/19 08:51:18;;;;;;;1.55;1.05;;;21.20;76.50;;;;;;5013311;28;20022;-74
2021/07/19 08:53:44;;;;;;;0.80;0.80;;;21.20;75.70;;;;;;5014022;28;20022;-73
2021/07/19 08:56:12;;;;;;;1.13;1.00;;;21.30;75.70;;;;;;5014208;28;20515;-74
2021/07/19 08:58:38;;;;;;;0.95;0.82;;;21.30;75.50;;;;;;5013571;28;20505;-72
2021/07/19 09:01:03;;;;;;;0.93;0.70;;;21.20;75.60;;;;;;5013565;28;20054;-73
2021/07/19 09:03:29;;;;;;;1.15;0.98;;;21.20;75.50;;;;;;5013747;28;20080;-74
2021/07/19 09:05:55;;;;;;;1.05;0.85;;;21.30;75.50;;;;;;5013126;28;20034;-74
2021/07/19 09:08:21;;;;;;;1.17;1.00;;;21.20;75.50;;;;;;5013319;28;20021;-73
2021/07/19 09:10:46;;;;;;;1.35;1.02;;;21.20;75.50;;;;;;5013365;28;20052;-72
2021/07/19 09:13:17;;;;;;;1.05;0.90;;;21.10;75.60;;;;;;5028663;28;20107;-74
2021/07/19 09:15:43;;;;;;;0.73;0.73;;;21.10;75.60;;;;;;5013430;28;20370;-73
2021/07/19 09:18:09;;;;;;;0.95;0.95;;;21.10;75.60;;;;;;5013570;28;20478;-74
2021/07/19 09:20:38;;;;;;;1.67;1.40;;;21.10;75.40;;;;;;5013117;28;20026;-74
2021/07/19 09:23:09;;;;;;;1.02;0.98;;;21.10;75.40;;;;;;5013248;28;20049;-73
2021/07/19 09:25:37;;;;;;;1.85;1.23;;;21.10;75.10;;;;;;5013124;28;20037;-74
2021/07/19 09:28:05;;;;;;;1.38;1.13;;;21.10;75.20;;;;;;5013312;28;20050;-73
2021/07/19 09:30:33;;;;;;;1.30;1.00;;;21.20;75.20;;;;;;5028346;28;20038;-73
2021/07/19 09:33:02;;;;;;;0.77;0.73;;;21.40;74.90;;;;;;5013312;28;20044;-74
2021/07/19 09:35:29;;;;;;;1.15;1.00;;;21.40;74.70;;;;;;5012976;28;20069;-75
2021/07/19 09:38:00;;;;;;;1.08;0.93;;;21.60;74.60;;;;;;5028480;28;20026;-73
2021/07/19 09:40:28;;;;;;;1.50;1.13;;;21.80;74.40;;;;;;5013213;28;20040;-73
2021/07/19 09:42:54;;;;;;;1.90;1.52;;;21.80;74.00;;;;;;5013312;28;20022;-73
2021/07/19 09:45:31;;;;;;;1.17;1.00;;;21.60;74.20;;;;;;5013157;28;20034;-74
2021/07/19 09:48:06;;;;;;;1.75;1.35;;;21.30;74.90;;;;;;5012661;28;20029;-74
2021/07/19 09:50:52;;;;;;;1.45;1.10;;;21.00;75.40;;;;;;5013338;28;20018;-73
2021/07/19 09:53:39;;;;;;;1.13;1.02;;;20.90;75.70;;;;;;5028471;28;20026;-75
2021/07/19 09:56:18;;;;;;;1.65;1.40;;;20.90;75.50;;;;;;5028296;28;20429;-74
2021/07/19 09:58:49;;;;;;;1.67;1.13;;;20.80;75.30;;;;;;5013029;28;20060;-73
2021/07/19 10:01:31;;;;;;;1.40;1.10;;;20.80;75.40;;;;;;5013151;28;20022;-74
2021/07/19 10:04:08;;;;;;;1.15;0.80;;;21.00;75.10;;;;;;5012657;28;20080;-74
2021/07/19 10:06:38;;;;;;;0.98;0.98;;;21.30;74.70;;;;;;5013121;28;20038;-73
2021/07/19 10:09:07;;;;;;;1.20;1.10;;;21.40;74.30;;;;;;5012896;28;20068;-74
2021/07/19 10:11:35;;;;;;;1.92;1.10;;;21.50;74.10;;;;;;5012991;28;20076;-75
2021/07/19 10:14:02;;;;;;;1.00;0.90;;;21.50;74.20;;;;;;5012959;28;20018;-72
2021/07/19 10:16:30;;;;;;;1.73;1.30;;;21.50;74.20;;;;;;5012911;28;20042;-74
2021/07/19 10:18:57;;;;;;;1.85;1.10;;;21.50;74.10;;;;;;5012984;28;20054;-74
2021/07/19 10:21:29;;;;;;;1.10;1.00;;;21.60;74.20;;;;;;5016633;28;20049;-74
2021/07/19 10:24:02;;;;;;;1.02;0.90;;;21.70;74.00;;;;;;5016419;28;20131;-74
2021/07/19 10:26:29;;;;;;;2.40;1.33;;;21.90;73.70;;;;;;5016397;28;20045;-74
2021/07/19 10:28:56;;;;;;;0.85;0.80;;;22.10;73.30;;;;;;5016505;28;20030;-73
2021/07/19 10:31:22;;;;;;;1.10;0.98;;;22.40;73.20;;;;;;5031184;28;20022;-75
2021/07/19 10:33:49;;;;;;;2.92;1.52;;;22.50;72.80;;;;;;5016190;28;20033;-73
2021/07/19 10:36:42;;;;;;;1.30;1.10;;;22.70;72.50;;;;;;5016521;28;20026;-73
2021/07/19 10:39:19;;;;;;;1.15;0.90;;;22.80;72.60;;;;;;5010645;28;20041;-75
2021/07/19 10:41:44;;;;;;;1.30;1.20;;;22.90;72.70;;;;;;5016218;28;20061;-72
2021/07/19 10:44:14;;;;;;;1.20;1.10;;;22.90;72.70;;;;;;5016021;28;20053;-74
2021/07/19 10:46:41;;;;;;;1.08;0.95;;;22.90;72.80;;;;;;5030706;28;20107;-74
2021/07/19 10:49:12;;;;;;;1.88;1.30;;;22.70;72.90;;;;;;5030998;28;20037;-72
2021/07/19 10:51:46;;;;;;;1.23;1.13;;;22.50;73.30;;;;;;5015949;28;20471;-75
2021/07/19 10:54:18;;;;;;;1.20;1.10;;;22.50;73.50;;;;;;5016071;28;20022;-74
2021/07/19 10:56:44;;;;;;;1.35;1.00;;;22.60;73.30;;;;;;5016013;28;20029;-73
2021/07/19 10:59:09;;;;;;;1.48;1.35;;;22.80;73.10;;;;;;5015737;28;20022;-74
2021/07/19 11:01:35;;;;;;;1.33;1.20;;;22.90;72.90;;;;;;5015292;28;20057;-73
2021/07/19 11:04:13;;;;;;;1.45;1.30;;;23.00;72.60;;;;;;5030930;28;20105;-75
2021/07/19 11:06:40;;;;;;;2.17;1.55;;;23.20;72.30;;;;;;5015736;28;20033;-75
2021/07/19 11:09:07;;;;;;;1.60;1.50;;;23.40;71.80;;;;;;5015765;28;20022;-75
2021/07/19 11:11:35;;;;;;;2.22;1.52;;;23.30;72.30;;;;;;5015328;28;20387;-75
2021/07/19 11:14:07;;;;;;;1.88;1.50;;;23.30;72.20;;;;;;5015432;28;20470;-74
2021/07/19 11:16:42;;;;;;;1.90;1.70;;;23.10;72.50;;;;;;5015239;28;20100;-72
2021/07/19 11:19:09;;;;;;;2.17;1.70;;;23.10;72.50;;;;;;5015464;28;20360;-73
2021/07/19 11:21:35;;;;;;;2.78;1.90;;;22.90;72.70;;;;;;5015406;28;20108;-74
2021/07/19 11:24:15;;;;;;;1.83;1.40;;;23.00;72.90;;;;;;5030236;28;20038;-73
2021/07/19 11:26:56;;;;;;;1.88;1.48;;;23.10;72.50;;;;;;5015298;28;20045;-75
2021/07/19 11:29:41;;;;;;;1.73;1.63;;;23.30;72.30;;;;;;5014755;28;20029;-73
2021/07/19 11:32:10;;;;;;;2.13;1.75;;;23.70;71.80;;;;;;5015328;28;20030;-74
2021/07/19 11:34:37;;;;;;;1.23;1.13;;;24.30;71.10;;;;;;5030286;28;20038;-76
2021/07/19 11:37:03;;;;;;;1.23;1.02;;;24.90;70.10;;;;;;5014929;28;20053;-73
2021/07/19 11:39:40;;;;;;;1.70;1.48;;;25.00;69.50;;;;;;5030313;28;20096;-73
2021/07/19 11:42:05;;;;;;;1.50;1.40;;;24.90;69.80;;;;;;5015160;28;20022;-74
2021/07/19 11:44:32;;;;;;;2.38;1.95;;;24.90;69.80;;;;;;5014488;28;20081;-74
2021/07/19 11:46:59;;;;;;;2.60;1.58;;;24.70;69.90;;;;;;5014825;28;20502;-73
2021/07/19 11:49:25;;;;;;;1.60;1.42;;;24.30;70.60;;;;;;5014813;28;20018;-72
2021/07/19 11:51:51;;;;;;;1.67;1.45;;;23.90;71.20;;;;;;5014822;28;20022;-73
2021/07/19 11:54:18;;;;;;;2.17;1.88;;;23.70;71.40;;;;;;5015093;28;20105;-74
2021/07/19 11:56:54;;;;;;;2.40;1.92;;;23.70;71.30;;;;;;5014755;28;20571;-74
2021/07/19 11:59:24;;;;;;;2.97;2.10;;;23.70;71.00;;;;;;5014267;28;20080;-74
2021/07/19 12:02:00;;;;;;;1.63;1.50;;;23.60;71.20;;;;;;5014694;28;20081;-74
2021/07/19 12:04:40;;;;;;;2.25;1.70;;;23.90;70.90;;;;;;5014465;28;20072;-73
2021/07/19 12:07:10;;;;;;;2.60;1.85;;;24.50;69.80;;;;;;5014732;28;20065;-73
2021/07/19 12:09:37;;;;;;;2.50;1.90;;;24.90;69.10;;;;;;5029929;28;20022;-73
2021/07/19 12:12:03;;;;;;;2.58;1.98;;;25.10;69.10;;;;;;5014505;28;20026;-73
2021/07/19 12:14:30;;;;;;;2.75;2.00;;;24.70;68.80;;;;;;5013808;28;20479;-73
2021/07/19 12:16:56;;;;;;;2.38;1.60;;;24.30;69.60;;;;;;5014476;28;20025;-72
2021/07/19 12:19:22;;;;;;;3.00;2.28;;;24.00;70.20;;;;;;5014326;28;20375;-73
2021/07/19 12:21:48;;;;;;;2.13;1.58;;;23.90;70.30;;;;;;5014368;28;20022;-74
2021/07/19 12:24:15;;;;;;;2.15;1.73;;;23.70;70.60;;;;;;5014081;28;20038;-73
2021/07/19 12:26:48;;;;;;;2.10;1.42;;;23.50;70.90;;;;;;5014044;28;20038;-74
2021/07/19 12:29:19;;;;;;;1.80;1.58;;;23.40;71.10;;;;;;5028904;28;20029;-74
2021/07/19 12:31:49;;;;;;;2.42;1.67;;;23.30;71.10;;;;;;5014126;28;20052;-72
2021/07/19 12:34:27;;;;;;;2.40;1.95;;;23.20;71.40;;;;;;5014101;28;20481;-72
2021/07/19 12:36:56;;;;;;;2.00;1.67;;;23.60;71.50;;;;;;5014086;28;20029;-72
2021/07/19 12:39:27;;;;;;;2.33;1.50;;;24.20;70.00;;;;;;5014015;28;20049;-72
2021/07/19 12:41:54;;;;;;;1.30;1.08;;;24.80;68.90;;;;;;5013029;28;20022;-74
2021/07/19 12:44:24;;;;;;;2.05;1.73;;;25.40;68.10;;;;;;5013969;28;20402;-73
2021/07/19 12:46:51;;;;;;;1.85;1.52;;;25.90;67.50;;;;;;5013811;28;20399;-72
2021/07/19 12:49:39;;;;;;;2.33;1.85;;;26.20;67.20;;;;;;5029124;28;20024;-73
2021/07/19 12:52:16;;;;;;;3.92;2.38;;;26.20;66.80;;;;;;5013748;28;20026;-73